createdAt,value
2023-05-08T00:00:20.425Z,95.23
2023-05-08T00:02:49.856Z,95.09
2023-05-08T00:05:16.317Z,95.15
2023-05-08T00:07:42.921Z,95.29
2023-05-08T00:10:13.002Z,95.15
2023-05-08T00:12:39.547Z,95.24
2023-05-08T00:15:06.758Z,95.34
2023-05-08T00:17:34.063Z,95.23
2023-05-08T00:20:00.672Z,95.37
2023-05-08T00:22:30.164Z,95.35
2023-05-08T00:24:56.719Z,95.25
2023-05-08T00:27:23.067Z,95.20
2023-05-08T00:29:52.013Z,95.20
2023-05-08T00:32:21.023Z,95.22
2023-05-08T00:34:50.288Z,95.25
2023-05-08T00:37:16.869Z,95.33
2023-05-08T00:39:43.783Z,95.27
2023-05-08T00:42:10.325Z,95.16
2023-05-08T00:44:39.449Z,95.37
2023-05-08T00:47:07.300Z,95.32
2023-05-08T00:49:35.614Z,95.12
2023-05-08T00:52:04.735Z,95.24
2023-05-08T00:54:31.607Z,95.33
2023-05-08T00:56:58.104Z,95.30
2023-05-08T00:59:27.134Z,95.47
2023-05-08T01:01:56.969Z,95.18
2023-05-08T01:04:25.140Z,95.14
2023-05-08T01:06:51.646Z,95.50
2023-05-08T01:09:18.076Z,95.56
2023-05-08T01:11:56.050Z,94.96
2023-05-08T01:14:29.808Z,95.25
2023-05-08T01:17:11.820Z,95.46
2023-05-08T01:19:41.209Z,95.37
2023-05-08T01:22:16.491Z,95.45
2023-05-08T01:25:04.276Z,95.21
2023-05-08T01:28:06.674Z,95.26
2023-05-08T01:30:38.885Z,95.38
2023-05-08T01:33:17.329Z,95.29
2023-05-08T01:35:49.975Z,95.47
2023-05-08T01:38:26.664Z,95.57
2023-05-08T01:40:56.656Z,95.46
2023-05-08T01:43:31.381Z,95.43
2023-05-08T01:46:01.609Z,95.52
2023-05-08T01:48:37.591Z,95.57
2023-05-08T01:51:11.914Z,95.46
2023-05-08T01:53:43.034Z,95.60
2023-05-08T01:56:18.988Z,95.46
2023-05-08T01:58:49.823Z,95.44
2023-05-08T02:01:18.889Z,95.31
2023-05-08T02:03:46.579Z,95.59
2023-05-08T02:06:17.269Z,95.45
2023-05-08T02:08:44.877Z,95.67
2023-05-08T02:11:13.491Z,95.23
2023-05-08T02:13:41.537Z,95.77
2023-05-08T02:16:11.469Z,95.88
2023-05-08T02:18:40.254Z,95.60
2023-05-08T02:21:09.433Z,95.34
2023-05-08T02:23:36.294Z,95.67
2023-05-08T02:26:04.590Z,95.73
2023-05-08T02:28:35.122Z,95.71
2023-05-08T02:31:04.916Z,95.59
2023-05-08T02:33:32.307Z,95.72
2023-05-08T02:36:00.499Z,95.54
2023-05-08T02:38:27.263Z,95.47
2023-05-08T02:41:02.270Z,95.76
2023-05-08T02:43:32.006Z,95.36
2023-05-08T02:46:10.890Z,95.65
2023-05-08T02:49:01.923Z,95.51
2023-05-08T02:51:56.356Z,95.34
2023-05-08T02:54:33.169Z,95.25
2023-05-08T02:57:14.454Z,95.29
2023-05-08T02:59:45.794Z,95.36
2023-05-08T03:02:40.580Z,95.40
2023-05-08T03:05:15.305Z,95.65
2023-05-08T03:07:43.633Z,95.51
2023-05-08T03:10:13.276Z,95.46
2023-05-08T03:12:44.889Z,95.41
2023-05-08T03:15:23.968Z,95.36
2023-05-08T03:17:54.714Z,95.29
2023-05-08T03:20:24.693Z,94.96
2023-05-08T03:22:54.689Z,95.06
2023-05-08T03:25:21.739Z,95.24
2023-05-08T03:27:49.049Z,95.20
2023-05-08T03:30:16.895Z,95.16
2023-05-08T03:32:46.908Z,95.21
2023-05-08T03:35:15.416Z,95.36
2023-05-08T03:37:43.236Z,95.31
2023-05-08T03:40:10.475Z,95.38
2023-05-08T03:42:37.559Z,95.44
2023-05-08T03:45:04.947Z,95.42
2023-05-08T03:47:32.248Z,95.09
2023-05-08T03:50:01.491Z,95.38
2023-05-08T03:52:27.929Z,95.28
2023-05-08T03:54:56.929Z,95.16
2023-05-08T03:57:33.460Z,95.01
2023-05-08T04:00:11.100Z,94.73
2023-05-08T04:02:42.303Z,94.90
2023-05-08T04:05:26.958Z,95.03
2023-05-08T04:08:03.072Z,95.03
2023-05-08T04:10:32.393Z,94.87
2023-05-08T04:13:07.215Z,95.43
2023-05-08T04:15:38.445Z,95.46
2023-05-08T04:18:09.332Z,95.66
2023-05-08T04:20:40.320Z,95.19
2023-05-08T04:23:08.755Z,95.20
2023-05-08T04:25:39.748Z,95.36
2023-05-08T04:28:06.279Z,95.60
2023-05-08T04:30:35.618Z,95.48
2023-05-08T04:33:05.077Z,95.51
2023-05-08T04:35:33.827Z,95.56
2023-05-08T04:38:00.489Z,95.43
2023-05-08T04:40:26.907Z,95.90
2023-05-08T04:42:57.430Z,95.82
2023-05-08T04:45:24.084Z,95.87
2023-05-08T04:47:50.509Z,95.86
2023-05-08T04:50:16.976Z,95.94
2023-05-08T04:52:46.568Z,95.94
2023-05-08T04:55:13.281Z,96.02
2023-05-08T04:57:40.473Z,95.79
2023-05-08T05:00:07.524Z,95.85
2023-05-08T05:02:34.250Z,95.83
2023-05-08T05:05:01.385Z,96.06
2023-05-08T05:07:27.961Z,96.09
2023-05-08T05:09:54.427Z,96.19
2023-05-08T05:12:24.180Z,96.04
2023-05-08T05:14:51.240Z,96.10
2023-05-08T05:17:18.070Z,96.02
2023-05-08T05:19:44.510Z,96.01
2023-05-08T05:22:11.616Z,96.07
2023-05-08T05:24:39.857Z,96.27
2023-05-08T05:27:09.837Z,96.19
2023-05-08T05:29:36.412Z,96.16
2023-05-08T05:32:03.445Z,96.09
2023-05-08T05:34:30.311Z,96.18
2023-05-08T05:36:56.738Z,96.12
2023-05-08T05:39:23.283Z,96.14
2023-05-08T05:41:52.569Z,95.97
2023-05-08T05:44:18.976Z,96.06
2023-05-08T05:46:47.847Z,95.98
2023-05-08T05:49:14.379Z,95.87
2023-05-08T05:51:40.794Z,95.88
2023-05-08T05:54:07.320Z,95.75
2023-05-08T05:56:33.740Z,95.87
2023-05-08T05:59:02.617Z,95.78
2023-05-08T06:01:29.159Z,95.61
2023-05-08T06:04:00.686Z,95.70
2023-05-08T06:06:27.585Z,95.85
2023-05-08T06:08:54.323Z,95.71
2023-05-08T06:11:22.676Z,95.71
2023-05-08T06:13:50.462Z,95.54
2023-05-08T06:16:17.325Z,95.67
2023-05-08T06:18:43.801Z,95.78
2023-05-08T06:21:10.487Z,95.81
2023-05-08T06:23:37.264Z,95.83
2023-05-08T06:26:03.853Z,95.73
2023-05-08T06:28:30.453Z,95.95
2023-05-08T06:30:56.825Z,95.84
2023-05-08T06:33:26.909Z,95.42
2023-05-08T06:35:53.895Z,95.19
2023-05-08T06:38:20.424Z,94.89
2023-05-08T06:40:47.975Z,94.51
2023-05-08T06:43:14.433Z,94.17
2023-05-08T06:45:40.855Z,94.22
2023-05-08T06:48:07.730Z,94.93
2023-05-08T06:50:34.291Z,94.23
2023-05-08T06:53:01.275Z,93.33
2023-05-08T06:55:30.599Z,93.01
2023-05-08T06:57:57.152Z,92.70
2023-05-08T07:00:26.052Z,93.06
2023-05-08T07:02:52.676Z,92.93
2023-05-08T07:05:21.819Z,93.59
2023-05-08T07:07:48.249Z,93.71
2023-05-08T07:10:14.751Z,93.95
2023-05-08T07:12:41.322Z,93.87
2023-05-08T07:15:24.026Z,94.35
2023-05-08T07:17:52.974Z,94.46
2023-05-08T07:20:19.664Z,94.58
2023-05-08T07:22:46.675Z,94.64
2023-05-08T07:25:16.235Z,93.76
2023-05-08T07:27:43.032Z,93.29
2023-05-08T07:30:09.830Z,93.86
2023-05-08T07:32:38.464Z,93.53
2023-05-08T07:35:09.738Z,93.59
2023-05-08T07:37:37.133Z,94.08
2023-05-08T07:40:03.972Z,93.89
2023-05-08T07:42:30.353Z,93.77
2023-05-08T07:44:57.301Z,93.72
2023-05-08T07:47:23.916Z,93.79
2023-05-08T07:49:53.350Z,93.60
2023-05-08T07:52:19.927Z,93.69
2023-05-08T07:54:46.534Z,93.91
2023-05-08T07:57:13.038Z,93.82
2023-05-08T07:59:41.871Z,94.02
2023-05-08T08:02:11.393Z,94.30
2023-05-08T08:04:38.105Z,94.49
2023-05-08T08:07:04.609Z,94.56
2023-05-08T08:09:31.263Z,94.78
2023-05-08T08:11:58.254Z,94.03
2023-05-08T08:14:24.621Z,93.93
2023-05-08T08:16:51.215Z,94.00
2023-05-08T08:19:17.762Z,94.19
2023-05-08T08:21:44.813Z,93.84
2023-05-08T08:24:12.609Z,93.32
2023-05-08T08:26:39.027Z,93.29
2023-05-08T08:29:05.585Z,93.48
2023-05-08T08:31:32.151Z,93.55
2023-05-08T08:34:01.037Z,93.32
2023-05-08T08:36:28.043Z,93.41
2023-05-08T08:38:54.482Z,93.83
2023-05-08T08:41:21.747Z,94.21
2023-05-08T08:43:49.051Z,94.09
2023-05-08T08:46:20.221Z,94.17
2023-05-08T08:48:47.376Z,93.62
2023-05-08T08:51:33.417Z,93.75
2023-05-08T08:54:07.731Z,92.79
2023-05-08T08:56:36.257Z,93.25
2023-05-08T08:59:04.476Z,93.25
2023-05-08T09:01:36.360Z,92.75
2023-05-08T09:04:02.973Z,91.97
2023-05-08T09:06:29.813Z,91.19
2023-05-08T09:08:57.951Z,91.19
2023-05-08T09:11:25.258Z,91.46
2023-05-08T09:13:51.897Z,91.80
2023-05-08T09:16:18.954Z,91.48
2023-05-08T09:18:45.830Z,91.51
2023-05-08T09:21:12.992Z,91.39
2023-05-08T09:24:02.461Z,91.26
2023-05-08T09:26:35.336Z,90.90
2023-05-08T09:29:24.299Z,91.42
2023-05-08T09:31:53.068Z,89.95
2023-05-08T09:34:28.002Z,89.53
2023-05-08T09:37:09.816Z,89.00
2023-05-08T09:39:36.260Z,89.88
2023-05-08T09:42:06.751Z,90.62
2023-05-08T09:44:46.395Z,88.69
2023-05-08T09:47:14.484Z,86.70
2023-05-08T09:50:23.189Z,87.02
2023-05-08T09:52:52.671Z,87.67
2023-05-08T09:55:19.374Z,87.96
2023-05-08T09:57:57.187Z,88.90
2023-05-08T10:00:26.336Z,88.74
2023-05-08T10:03:03.982Z,87.66
2023-05-08T10:05:36.261Z,86.78
2023-05-08T10:08:23.842Z,86.27
2023-05-08T10:10:53.548Z,88.78
2023-05-08T10:13:20.837Z,86.63
2023-05-08T10:15:54.421Z,87.55
2023-05-08T10:18:28.517Z,89.00
2023-05-08T10:20:58.217Z,88.76
2023-05-08T10:23:26.702Z,88.56
2023-05-08T10:25:56.978Z,87.69
2023-05-08T10:28:33.184Z,85.91
2023-05-08T10:31:03.141Z,85.67
2023-05-08T10:33:31.700Z,86.94
2023-05-08T10:36:00.054Z,86.12
2023-05-08T10:38:27.315Z,86.47
2023-05-08T10:40:57.881Z,87.31
2023-05-08T10:43:29.236Z,85.62
2023-05-08T10:45:57.814Z,86.46
2023-05-08T10:48:45.799Z,86.35
2023-05-08T10:51:41.119Z,85.70
2023-05-08T10:54:38.312Z,87.00
2023-05-08T10:57:09.568Z,86.25
2023-05-08T10:59:39.377Z,84.91
2023-05-08T11:02:08.377Z,84.95
2023-05-08T11:04:35.178Z,84.52
2023-05-08T11:07:02.194Z,84.66
2023-05-08T11:09:33.732Z,85.28
2023-05-08T11:12:07.983Z,84.44
2023-05-08T11:14:38.512Z,85.36
2023-05-08T11:17:08.965Z,85.34
2023-05-08T11:19:36.362Z,83.54
2023-05-08T11:22:23.584Z,81.03
2023-05-08T11:25:02.209Z,82.87
2023-05-08T11:27:40.634Z,84.26
2023-05-08T11:30:35.100Z,81.06
2023-05-08T11:33:07.135Z,80.24
2023-05-08T11:35:54.420Z,82.58
2023-05-08T11:38:27.822Z,80.50
2023-05-08T11:40:58.429Z,81.47
2023-05-08T11:43:35.998Z,80.73
2023-05-08T11:46:10.422Z,81.64
2023-05-08T11:48:36.814Z,80.67
2023-05-08T11:51:04.036Z,80.16
2023-05-08T11:53:31.378Z,78.73
2023-05-08T11:55:59.221Z,81.31
2023-05-08T11:58:25.933Z,81.72
2023-05-08T12:00:57.903Z,79.60
2023-05-08T12:03:27.273Z,77.97
2023-05-08T12:05:58.837Z,81.33
2023-05-08T12:08:25.625Z,82.25
2023-05-08T12:10:56.779Z,82.95
2023-05-08T12:13:25.605Z,81.95
2023-05-08T12:15:57.824Z,83.50
2023-05-08T12:18:26.312Z,81.77
2023-05-08T12:21:00.465Z,83.51
2023-05-08T12:23:30.960Z,80.01
2023-05-08T12:26:02.177Z,80.37
2023-05-08T12:28:29.390Z,77.96
2023-05-08T12:30:56.214Z,79.80
2023-05-08T12:33:24.229Z,79.71
2023-05-08T12:35:50.908Z,79.19
2023-05-08T12:38:17.352Z,78.37
2023-05-08T12:40:55.431Z,72.54
2023-05-08T12:43:31.286Z,74.98
2023-05-08T12:45:57.846Z,76.23
2023-05-08T12:48:24.232Z,74.18
2023-05-08T12:50:50.567Z,76.06
2023-05-08T12:53:19.398Z,76.44
2023-05-08T12:55:54.580Z,75.81
2023-05-08T12:58:25.445Z,76.83
2023-05-08T13:01:12.890Z,76.59
2023-05-08T13:03:42.545Z,75.26
2023-05-08T13:06:23.024Z,75.36
2023-05-08T13:08:57.432Z,74.14
2023-05-08T13:11:31.711Z,74.64
2023-05-08T13:13:58.243Z,70.10
2023-05-08T13:16:27.297Z,74.92
2023-05-08T13:18:58.611Z,75.53
2023-05-08T13:21:27.233Z,72.61
2023-05-08T13:23:55.408Z,72.87
2023-05-08T13:26:21.807Z,73.58
2023-05-08T13:28:51.327Z,74.32
2023-05-08T13:31:17.756Z,74.37
2023-05-08T13:33:44.295Z,73.22
2023-05-08T13:36:10.731Z,74.61
2023-05-08T13:38:37.069Z,75.02
2023-05-08T13:41:03.516Z,75.58
2023-05-08T13:43:30.815Z,73.94
2023-05-08T13:45:59.638Z,74.75
2023-05-08T13:48:26.010Z,76.22
2023-05-08T13:50:52.414Z,74.04
2023-05-08T13:53:18.982Z,75.78
2023-05-08T13:55:46.220Z,75.57
2023-05-08T13:58:15.251Z,77.21
2023-05-08T14:00:41.672Z,75.81
2023-05-08T14:03:08.916Z,75.75
2023-05-08T14:05:35.501Z,76.81
2023-05-08T14:08:01.868Z,75.53
2023-05-08T14:10:31.076Z,76.52
2023-05-08T14:12:57.501Z,76.38
2023-05-08T14:15:27.027Z,75.16
2023-05-08T14:18:01.144Z,74.51
2023-05-08T14:20:27.832Z,75.95
2023-05-08T14:22:54.235Z,75.26
2023-05-08T14:25:20.780Z,73.71
2023-05-08T14:27:47.329Z,75.30
2023-05-08T14:30:15.286Z,75.76
2023-05-08T14:32:41.831Z,74.19
2023-05-08T14:35:10.314Z,73.67
2023-05-08T14:37:37.392Z,73.95
2023-05-08T14:40:07.295Z,73.76
2023-05-08T14:42:33.715Z,74.50
2023-05-08T14:45:01.388Z,74.98
2023-05-08T14:47:28.119Z,72.79
2023-05-08T14:49:55.857Z,74.03
2023-05-08T14:52:22.537Z,73.57
2023-05-08T14:54:53.797Z,74.44
2023-05-08T14:57:21.451Z,75.05
2023-05-08T15:02:20.631Z,76.09
2023-05-08T15:04:47.202Z,75.12
2023-05-08T15:07:14.536Z,73.45
2023-05-08T15:09:44.269Z,74.88
2023-05-08T15:12:10.660Z,72.48
2023-05-08T15:14:39.649Z,74.46
2023-05-08T15:17:06.375Z,73.45
2023-05-08T15:19:32.756Z,73.53
2023-05-08T15:22:00.013Z,73.81
2023-05-08T15:24:26.425Z,73.61
2023-05-08T15:26:53.045Z,75.25
2023-05-08T15:29:21.547Z,74.54
2023-05-08T15:31:48.423Z,73.14
2023-05-08T15:34:14.837Z,74.29
2023-05-08T15:36:41.837Z,74.83
2023-05-08T15:39:10.724Z,73.96
2023-05-08T15:41:39.951Z,73.79
2023-05-08T15:44:06.948Z,73.87
2023-05-08T15:46:34.075Z,74.10
2023-05-08T15:49:03.372Z,74.10
2023-05-08T15:51:29.822Z,74.75
2023-05-08T15:53:57.635Z,73.38
2023-05-08T15:56:26.721Z,73.66
2023-05-08T15:58:53.743Z,73.63
2023-05-08T16:01:20.698Z,73.97
2023-05-08T16:03:52.836Z,72.32
2023-05-08T16:06:19.235Z,74.20
2023-05-08T16:08:45.803Z,72.59
2023-05-08T16:11:14.681Z,73.91
2023-05-08T16:13:41.984Z,74.60
2023-05-08T16:16:08.727Z,73.55
2023-05-08T16:18:35.483Z,74.74
2023-05-08T16:21:01.889Z,74.01
2023-05-08T16:23:29.063Z,73.13
2023-05-08T16:25:58.085Z,73.60
2023-05-08T16:28:24.500Z,73.43
2023-05-08T16:30:50.946Z,75.04
2023-05-08T16:33:17.347Z,73.68
2023-05-08T16:35:44.483Z,71.94
2023-05-08T16:38:21.916Z,71.84
2023-05-08T16:40:48.275Z,72.66
2023-05-08T16:43:14.738Z,72.67
2023-05-08T16:45:42.790Z,73.32
2023-05-08T16:48:09.415Z,72.66
2023-05-08T16:50:37.073Z,73.40
2023-05-08T16:53:05.231Z,72.61
2023-05-08T16:55:32.730Z,74.97
2023-05-08T16:57:59.099Z,73.89
2023-05-08T17:00:27.326Z,73.38
2023-05-08T17:02:54.436Z,73.77
2023-05-08T17:05:20.939Z,74.08
2023-05-08T17:07:47.542Z,74.90
2023-05-08T17:10:13.920Z,75.04
2023-05-08T17:12:40.621Z,75.77
2023-05-08T17:15:07.760Z,74.10
2023-05-08T17:17:34.225Z,74.44
2023-05-08T17:20:00.761Z,75.71
2023-05-08T17:22:27.181Z,75.98
2023-05-08T17:24:53.573Z,75.59
2023-05-08T17:27:19.955Z,75.30
2023-05-08T17:29:49.329Z,74.72
2023-05-08T17:32:15.710Z,75.90
2023-05-08T17:34:42.146Z,75.33
2023-05-08T17:37:08.602Z,75.85
2023-05-08T17:39:34.976Z,75.36
2023-05-08T17:42:01.332Z,76.34
2023-05-08T17:44:27.732Z,76.70
2023-05-08T17:46:54.160Z,75.97
2023-05-08T17:49:20.701Z,75.91
2023-05-08T17:51:47.531Z,76.34
2023-05-08T17:54:14.071Z,77.46
2023-05-08T17:56:46.424Z,76.59
2023-05-08T17:59:12.842Z,77.32
2023-05-08T18:01:39.272Z,78.47
2023-05-08T18:04:05.837Z,78.71
2023-05-08T18:06:37.280Z,79.34
2023-05-08T18:09:06.130Z,78.80
2023-05-08T18:11:38.211Z,78.74
2023-05-08T18:14:07.290Z,78.50
2023-05-08T18:16:33.798Z,78.70
2023-05-08T18:19:00.728Z,79.60
2023-05-08T18:21:28.723Z,79.17
2023-05-08T18:23:56.897Z,80.24
2023-05-08T18:26:24.068Z,79.01
2023-05-08T18:28:50.808Z,79.57
2023-05-08T18:31:21.516Z,80.12
2023-05-08T18:33:47.985Z,80.10
2023-05-08T18:36:17.048Z,80.54
2023-05-08T18:38:43.670Z,80.48
2023-05-08T18:41:15.320Z,80.30
2023-05-08T18:43:44.769Z,80.83
2023-05-08T18:46:13.191Z,80.57
2023-05-08T18:48:42.675Z,80.53
2023-05-08T18:51:11.019Z,81.00
2023-05-08T18:53:38.803Z,81.49
2023-05-08T18:56:05.554Z,82.49
2023-05-08T18:58:32.319Z,82.43
2023-05-08T19:00:58.858Z,82.44
2023-05-08T19:03:25.585Z,83.61
2023-05-08T19:05:54.581Z,83.47
2023-05-08T19:08:21.026Z,83.56
2023-05-08T19:10:50.301Z,83.62
2023-05-08T19:13:16.830Z,83.98
2023-05-08T19:15:44.250Z,84.17
2023-05-08T19:18:10.782Z,84.55
2023-05-08T19:20:37.457Z,84.91
2023-05-08T19:23:03.820Z,85.23
2023-05-08T19:25:30.168Z,85.27
2023-05-08T19:27:59.474Z,85.97
2023-05-08T19:30:25.847Z,86.16
2023-05-08T19:32:52.214Z,86.20
2023-05-08T19:35:18.590Z,85.60
2023-05-08T19:37:45.837Z,86.07
2023-05-08T19:40:13.766Z,85.90
2023-05-08T19:42:40.633Z,85.64
2023-05-08T19:45:07.950Z,86.34
2023-05-08T19:47:35.186Z,86.17
2023-05-08T19:50:01.602Z,86.29
2023-05-08T19:52:28.392Z,86.07
2023-05-08T19:54:54.882Z,86.08
2023-05-08T19:57:23.693Z,85.88
2023-05-08T19:59:50.103Z,85.57
2023-05-08T20:02:16.719Z,85.50
2023-05-08T20:05:07.944Z,85.68
2023-05-08T20:07:29.756Z,85.74
2023-05-08T20:09:57.352Z,85.61
2023-05-08T20:12:23.696Z,85.70
2023-05-08T20:14:50.111Z,85.84
2023-05-08T20:17:17.763Z,85.92
2023-05-08T20:22:11.166Z,86.19
2023-05-08T20:24:40.939Z,86.47
2023-05-08T20:27:07.397Z,86.87
2023-05-08T20:29:36.699Z,86.75
2023-05-08T20:32:08.144Z,87.12
2023-05-08T20:34:34.662Z,86.92
2023-05-08T20:37:04.370Z,87.42
2023-05-08T20:39:31.508Z,88.03
2023-05-08T20:41:57.847Z,87.83
2023-05-08T20:44:24.422Z,88.11
2023-05-08T20:46:51.758Z,87.91
2023-05-08T20:49:18.211Z,87.94
2023-05-08T20:51:44.542Z,88.20
2023-05-08T20:54:13.542Z,88.08
2023-05-08T20:56:40.087Z,87.96
2023-05-08T20:59:06.799Z,87.40
2023-05-08T21:01:33.211Z,87.30
2023-05-08T21:03:59.621Z,86.78
2023-05-08T21:06:26.022Z,86.90
2023-05-08T21:08:55.258Z,86.52
2023-05-08T21:11:21.925Z,86.41
2023-05-08T21:13:53.201Z,86.46
2023-05-08T21:16:19.600Z,86.51
2023-05-08T21:18:46.078Z,86.92
2023-05-08T21:21:19.875Z,87.08
2023-05-08T21:23:48.922Z,87.02
2023-05-08T21:26:23.266Z,87.59
2023-05-08T21:28:50.050Z,88.08
2023-05-08T21:31:16.431Z,87.46
2023-05-08T21:33:47.560Z,87.76
2023-05-08T21:36:14.023Z,87.55
2023-05-08T21:38:41.567Z,87.30
2023-05-08T21:41:08.561Z,87.18
2023-05-08T21:43:37.826Z,87.85
2023-05-08T21:46:05.784Z,87.33
2023-05-08T21:48:32.301Z,87.23
2023-05-08T21:50:59.431Z,87.89
2023-05-08T21:53:28.427Z,87.04
2023-05-08T21:55:54.795Z,87.06
2023-05-08T21:58:23.524Z,87.18
2023-05-08T22:00:49.909Z,87.02
2023-05-08T22:03:16.428Z,87.39
2023-05-08T22:05:42.951Z,87.34
2023-05-08T22:08:09.392Z,86.93
2023-05-08T22:10:35.883Z,87.23
2023-05-08T22:13:02.981Z,86.35
2023-05-08T22:15:30.520Z,86.18
2023-05-08T22:17:58.382Z,86.32
2023-05-08T22:20:25.123Z,86.52
2023-05-08T22:22:51.639Z,85.83
2023-05-08T22:25:18.106Z,85.45
2023-05-08T22:27:45.659Z,85.31
2023-05-08T22:30:12.270Z,85.35
2023-05-08T22:32:38.796Z,85.33
2023-05-08T22:35:06.320Z,85.05
2023-05-08T22:37:32.723Z,84.88
2023-05-08T22:39:59.165Z,85.25
2023-05-08T22:42:25.770Z,85.34
2023-05-08T22:44:52.416Z,85.37
2023-05-08T22:47:23.404Z,85.04
2023-05-08T22:49:50.336Z,85.28
2023-05-08T22:52:17.019Z,85.34
2023-05-08T22:54:43.495Z,85.01
2023-05-08T22:57:09.892Z,85.17
2023-05-08T22:59:36.487Z,85.60
2023-05-08T23:02:03.029Z,85.36
2023-05-08T23:04:29.574Z,85.83
2023-05-08T23:06:56.018Z,85.24
2023-05-08T23:09:22.877Z,85.69
2023-05-08T23:11:52.129Z,85.93
2023-05-08T23:14:21.100Z,86.03
2023-05-08T23:16:50.190Z,86.21
2023-05-08T23:19:16.659Z,86.58
2023-05-08T23:21:43.119Z,87.04
2023-05-08T23:24:12.178Z,87.16
2023-05-08T23:26:42.208Z,87.41
2023-05-08T23:29:08.701Z,87.88
2023-05-08T23:31:35.131Z,87.98
2023-05-08T23:34:03.918Z,88.34
2023-05-08T23:36:30.339Z,88.08
2023-05-08T23:38:56.937Z,88.44
2023-05-08T23:41:24.128Z,88.76
2023-05-08T23:43:50.611Z,88.74
2023-05-08T23:46:19.231Z,88.89
2023-05-08T23:48:45.609Z,89.26
2023-05-08T23:51:12.055Z,89.07
2023-05-08T23:53:38.642Z,89.45
2023-05-08T23:56:05.700Z,88.97
2023-05-08T23:58:32.082Z,89.51
